sensor_id;sensor_type;location;lat;lon;timestamp;temperature;humidity
37240;DHT22;23130;48.760;9.178;2023-04-04T00:00:29;-0.90;99.90
37240;DHT22;23130;48.760;9.178;2023-04-04T00:02:54;-1.00;99.90
37240;DHT22;23130;48.760;9.178;2023-04-04T00:05:20;-1.10;99.90
37240;DHT22;23130;48.760;9.178;2023-04-04T00:07:46;-1.20;99.90
37240;DHT22;23130;48.760;9.178;2023-04-04T00:10:11;-1.30;99.90
37240;DHT22;23130;48.760;9.178;2023-04-04T00:12:37;-1.40;99.90
37240;DHT22;23130;48.760;9.178;2023-04-04T00:15:03;-1.50;99.90
37240;DHT22;23130;48.760;9.178;2023-04-04T00:17:29;-1.50;99.90
37240;DHT22;23130;48.760;9.178;2023-04-04T00:19:54;-1.60;99.90
37240;DHT22;23130;48.760;9.178;2023-04-04T00:22:21;-1.70;99.90
37240;DHT22;23130;48.760;9.178;2023-04-04T00:24:47;-1.60;99.90
37240;DHT22;23130;48.760;9.178;2023-04-04T00:27:13;-1.60;99.90
37240;DHT22;23130;48.760;9.178;2023-04-04T00:29:41;-1.60;99.90
37240;DHT22;23130;48.760;9.178;2023-04-04T00:32:07;-1.70;99.90
37240;DHT22;23130;48.760;9.178;2023-04-04T00:34:33;-1.80;99.90
37240;DHT22;23130;48.760;9.178;2023-04-04T00:37:00;-1.80;99.90
37240;DHT22;23130;48.760;9.178;2023-04-04T00:39:26;-1.80;99.90
37240;DHT22;23130;48.760;9.178;2023-04-04T00:41:51;-1.90;99.90
37240;DHT22;23130;48.760;9.178;2023-04-04T00:44:17;-1.90;99.90
37240;DHT22;23130;48.760;9.178;2023-04-04T00:46:43;-1.90;99.90
37240;DHT22;23130;48.760;9.178;2023-04-04T00:49:09;-1.90;99.90
37240;DHT22;23130;48.760;9.178;2023-04-04T00:51:35;-1.90;99.90
37240;DHT22;23130;48.760;9.178;2023-04-04T00:54:01;-1.90;99.90
37240;DHT22;23130;48.760;9.178;2023-04-04T00:56:29;-2.00;99.90
37240;DHT22;23130;48.760;9.178;2023-04-04T00:58:55;-1.90;99.90
37240;DHT22;23130;48.760;9.178;2023-04-04T01:01:21;-1.90;99.90
37240;DHT22;23130;48.760;9.178;2023-04-04T01:03:48;-2.00;99.90
37240;DHT22;23130;48.760;9.178;2023-04-04T01:06:14;-2.00;99.90
37240;DHT22;23130;48.760;9.178;2023-04-04T01:08:40;-2.00;99.90
37240;DHT22;23130;48.760;9.178;2023-04-04T01:11:07;-2.00;99.90
37240;DHT22;23130;48.760;9.178;2023-04-04T01:13:33;-2.00;99.90
37240;DHT22;23130;48.760;9.178;2023-04-04T01:15:59;-2.00;99.90
37240;DHT22;23130;48.760;9.178;2023-04-04T01:18:26;-2.00;99.90
37240;DHT22;23130;48.760;9.178;2023-04-04T01:21:12;-2.20;99.90
37240;DHT22;23130;48.760;9.178;2023-04-04T01:26:09;-2.30;99.90
37240;DHT22;23130;48.760;9.178;2023-04-04T01:28:35;-2.40;99.90
37240;DHT22;23130;48.760;9.178;2023-04-04T01:31:01;-2.40;99.90
37240;DHT22;23130;48.760;9.178;2023-04-04T01:33:47;-2.40;99.90
37240;DHT22;23130;48.760;9.178;2023-04-04T01:36:22;-2.40;99.90
37240;DHT22;23130;48.760;9.178;2023-04-04T01:39:02;-2.40;99.90
37240;DHT22;23130;48.760;9.178;2023-04-04T01:41:32;-2.40;99.90
37240;DHT22;23130;48.760;9.178;2023-04-04T01:43:59;-2.30;99.90
37240;DHT22;23130;48.760;9.178;2023-04-04T01:46:25;-2.20;99.90
37240;DHT22;23130;48.760;9.178;2023-04-04T01:48:51;-2.20;99.90
37240;DHT22;23130;48.760;9.178;2023-04-04T01:51:17;-2.20;99.90
37240;DHT22;23130;48.760;9.178;2023-04-04T01:53:42;-2.20;99.90
37240;DHT22;23130;48.760;9.178;2023-04-04T01:56:08;-2.20;99.90
37240;DHT22;23130;48.760;9.178;2023-04-04T01:58:34;-2.20;99.90
37240;DHT22;23130;48.760;9.178;2023-04-04T02:01:00;-2.20;99.90
37240;DHT22;23130;48.760;9.178;2023-04-04T02:03:25;-2.20;99.90
37240;DHT22;23130;48.760;9.178;2023-04-04T02:05:51;-2.20;99.90
37240;DHT22;23130;48.760;9.178;2023-04-04T02:08:17;-2.10;99.90
37240;DHT22;23130;48.760;9.178;2023-04-04T02:10:42;-1.90;99.90
37240;DHT22;23130;48.760;9.178;2023-04-04T02:13:08;-1.80;99.90
37240;DHT22;23130;48.760;9.178;2023-04-04T02:15:34;-1.80;99.90
37240;DHT22;23130;48.760;9.178;2023-04-04T02:18:00;-1.90;99.90
37240;DHT22;23130;48.760;9.178;2023-04-04T02:20:26;-1.90;99.90
37240;DHT22;23130;48.760;9.178;2023-04-04T02:22:52;-1.90;99.90
37240;DHT22;23130;48.760;9.178;2023-04-04T02:25:19;-2.00;99.90
37240;DHT22;23130;48.760;9.178;2023-04-04T02:27:45;-2.00;99.90
37240;DHT22;23130;48.760;9.178;2023-04-04T02:30:11;-2.10;99.90
37240;DHT22;23130;48.760;9.178;2023-04-04T02:32:36;-2.20;99.90
37240;DHT22;23130;48.760;9.178;2023-04-04T02:35:04;-2.30;99.90
37240;DHT22;23130;48.760;9.178;2023-04-04T02:37:30;-2.50;99.90
37240;DHT22;23130;48.760;9.178;2023-04-04T02:39:55;-2.50;99.90
37240;DHT22;23130;48.760;9.178;2023-04-04T02:42:21;-2.60;99.90
37240;DHT22;23130;48.760;9.178;2023-04-04T02:44:46;-2.60;99.90
37240;DHT22;23130;48.760;9.178;2023-04-04T02:47:12;-2.70;99.90
37240;DHT22;23130;48.760;9.178;2023-04-04T02:49:38;-2.70;99.90
37240;DHT22;23130;48.760;9.178;2023-04-04T02:52:03;-2.80;99.90
37240;DHT22;23130;48.760;9.178;2023-04-04T02:54:29;-2.70;99.90
37240;DHT22;23130;48.760;9.178;2023-04-04T02:56:55;-2.70;99.90
37240;DHT22;23130;48.760;9.178;2023-04-04T02:59:20;-2.50;99.90
37240;DHT22;23130;48.760;9.178;2023-04-04T03:01:46;-2.30;99.90
37240;DHT22;23130;48.760;9.178;2023-04-04T03:04:12;-2.20;99.90
37240;DHT22;23130;48.760;9.178;2023-04-04T03:06:38;-2.20;99.90
37240;DHT22;23130;48.760;9.178;2023-04-04T03:09:05;-2.20;99.90
37240;DHT22;23130;48.760;9.178;2023-04-04T03:11:31;-2.20;99.90
37240;DHT22;23130;48.760;9.178;2023-04-04T03:13:57;-2.30;99.90
37240;DHT22;23130;48.760;9.178;2023-04-04T03:16:22;-2.40;99.90
37240;DHT22;23130;48.760;9.178;2023-04-04T03:18:48;-2.30;99.90
37240;DHT22;23130;48.760;9.178;2023-04-04T03:21:14;-2.40;99.90
37240;DHT22;23130;48.760;9.178;2023-04-04T03:23:40;-2.40;99.90
37240;DHT22;23130;48.760;9.178;2023-04-04T03:26:07;-2.50;99.90
37240;DHT22;23130;48.760;9.178;2023-04-04T03:28:33;-2.50;99.90
37240;DHT22;23130;48.760;9.178;2023-04-04T03:31:03;-2.60;99.90
37240;DHT22;23130;48.760;9.178;2023-04-04T03:33:29;-2.60;99.90
37240;DHT22;23130;48.760;9.178;2023-04-04T03:35:55;-2.60;99.90
37240;DHT22;23130;48.760;9.178;2023-04-04T03:38:20;-2.50;99.90
37240;DHT22;23130;48.760;9.178;2023-04-04T03:40:46;-2.50;99.90
37240;DHT22;23130;48.760;9.178;2023-04-04T03:43:11;-2.40;99.90
37240;DHT22;23130;48.760;9.178;2023-04-04T03:45:37;-2.40;99.90
37240;DHT22;23130;48.760;9.178;2023-04-04T03:48:03;-2.30;99.90
37240;DHT22;23130;48.760;9.178;2023-04-04T03:50:29;-2.30;99.90
37240;DHT22;23130;48.760;9.178;2023-04-04T03:52:54;-2.20;99.90
37240;DHT22;23130;48.760;9.178;2023-04-04T03:55:22;-2.20;99.90
37240;DHT22;23130;48.760;9.178;2023-04-04T03:57:48;-2.20;99.90
37240;DHT22;23130;48.760;9.178;2023-04-04T04:00:13;-2.30;99.90
37240;DHT22;23130;48.760;9.178;2023-04-04T04:02:42;-2.40;99.90
37240;DHT22;23130;48.760;9.178;2023-04-04T04:05:07;-2.50;99.90
37240;DHT22;23130;48.760;9.178;2023-04-04T04:07:33;-2.60;99.90
37240;DHT22;23130;48.760;9.178;2023-04-04T04:09:59;-2.70;99.90
37240;DHT22;23130;48.760;9.178;2023-04-04T04:12:24;-2.80;99.90
37240;DHT22;23130;48.760;9.178;2023-04-04T04:14:50;-2.80;99.90
37240;DHT22;23130;48.760;9.178;2023-04-04T04:17:16;-2.80;99.90
37240;DHT22;23130;48.760;9.178;2023-04-04T04:19:41;-2.90;99.90
37240;DHT22;23130;48.760;9.178;2023-04-04T04:22:10;-2.80;99.90
37240;DHT22;23130;48.760;9.178;2023-04-04T04:24:35;-2.60;99.90
37240;DHT22;23130;48.760;9.178;2023-04-04T04:27:01;-2.70;99.90
37240;DHT22;23130;48.760;9.178;2023-04-04T04:29:26;-2.70;99.90
37240;DHT22;23130;48.760;9.178;2023-04-04T04:31:52;-2.70;99.90
37240;DHT22;23130;48.760;9.178;2023-04-04T04:34:18;-2.70;99.90
37240;DHT22;23130;48.760;9.178;2023-04-04T04:36:43;-2.80;99.90
37240;DHT22;23130;48.760;9.178;2023-04-04T04:39:09;-2.80;99.90
37240;DHT22;23130;48.760;9.178;2023-04-04T04:41:34;-2.90;99.90
37240;DHT22;23130;48.760;9.178;2023-04-04T04:44:01;-2.90;99.90
37240;DHT22;23130;48.760;9.178;2023-04-04T04:46:26;-2.80;99.90
37240;DHT22;23130;48.760;9.178;2023-04-04T04:48:52;-2.70;99.90
37240;DHT22;23130;48.760;9.178;2023-04-04T04:51:17;-2.60;99.90
37240;DHT22;23130;48.760;9.178;2023-04-04T04:53:43;-2.60;99.90
37240;DHT22;23130;48.760;9.178;2023-04-04T04:56:09;-2.60;99.90
37240;DHT22;23130;48.760;9.178;2023-04-04T04:58:34;-2.60;99.90
37240;DHT22;23130;48.760;9.178;2023-04-04T05:01:00;-2.60;99.90
37240;DHT22;23130;48.760;9.178;2023-04-04T05:03:25;-2.60;99.90
37240;DHT22;23130;48.760;9.178;2023-04-04T05:05:52;-2.50;99.90
37240;DHT22;23130;48.760;9.178;2023-04-04T05:08:17;-2.40;99.90
37240;DHT22;23130;48.760;9.178;2023-04-04T05:10:43;-2.20;99.90
37240;DHT22;23130;48.760;9.178;2023-04-04T05:13:08;-2.20;99.90
37240;DHT22;23130;48.760;9.178;2023-04-04T05:15:35;-2.20;99.90
37240;DHT22;23130;48.760;9.178;2023-04-04T05:18:01;-2.10;99.90
37240;DHT22;23130;48.760;9.178;2023-04-04T05:20:27;-2.00;99.90
37240;DHT22;23130;48.760;9.178;2023-04-04T05:22:52;-2.00;99.90
37240;DHT22;23130;48.760;9.178;2023-04-04T05:25:18;-1.90;99.90
37240;DHT22;23130;48.760;9.178;2023-04-04T05:27:47;-1.90;99.90
37240;DHT22;23130;48.760;9.178;2023-04-04T05:30:13;-1.90;99.90
37240;DHT22;23130;48.760;9.178;2023-04-04T05:32:39;-1.80;99.90
37240;DHT22;23130;48.760;9.178;2023-04-04T05:35:05;-1.70;99.90
37240;DHT22;23130;48.760;9.178;2023-04-04T05:37:30;-1.80;99.90
37240;DHT22;23130;48.760;9.178;2023-04-04T05:39:56;-1.80;99.90
37240;DHT22;23130;48.760;9.178;2023-04-04T05:42:22;-1.80;99.90
37240;DHT22;23130;48.760;9.178;2023-04-04T05:44:47;-1.80;99.90
37240;DHT22;23130;48.760;9.178;2023-04-04T05:47:13;-1.80;99.90
37240;DHT22;23130;48.760;9.178;2023-04-04T05:49:38;-1.80;99.90
37240;DHT22;23130;48.760;9.178;2023-04-04T05:52:04;-1.70;99.90
37240;DHT22;23130;48.760;9.178;2023-04-04T05:54:29;-1.60;99.90
37240;DHT22;23130;48.760;9.178;2023-04-04T05:56:55;-0.90;99.90
37240;DHT22;23130;48.760;9.178;2023-04-04T05:59:21;0.40;99.90
37240;DHT22;23130;48.760;9.178;2023-04-04T06:01:46;2.10;99.90
37240;DHT22;23130;48.760;9.178;2023-04-04T06:04:12;3.60;99.90
37240;DHT22;23130;48.760;9.178;2023-04-04T06:06:38;4.80;99.90
37240;DHT22;23130;48.760;9.178;2023-04-04T06:09:03;5.80;99.90
37240;DHT22;23130;48.760;9.178;2023-04-04T06:11:29;6.60;99.90
37240;DHT22;23130;48.760;9.178;2023-04-04T06:13:54;7.00;99.10
37240;DHT22;23130;48.760;9.178;2023-04-04T06:16:21;7.70;98.30
37240;DHT22;23130;48.760;9.178;2023-04-04T06:18:46;8.10;97.30
37240;DHT22;23130;48.760;9.178;2023-04-04T06:21:12;8.40;96.30
37240;DHT22;23130;48.760;9.178;2023-04-04T06:23:38;8.70;95.60
37240;DHT22;23130;48.760;9.178;2023-04-04T06:26:05;8.90;94.80
37240;DHT22;23130;48.760;9.178;2023-04-04T06:28:31;8.90;94.80
37240;DHT22;23130;48.760;9.178;2023-04-04T06:30:56;8.90;94.60
37240;DHT22;23130;48.760;9.178;2023-04-04T06:33:22;9.30;93.70
37240;DHT22;23130;48.760;9.178;2023-04-04T06:35:48;9.30;92.90
37240;DHT22;23130;48.760;9.178;2023-04-04T06:38:13;9.30;92.60
37240;DHT22;23130;48.760;9.178;2023-04-04T06:40:39;9.30;92.60
37240;DHT22;23130;48.760;9.178;2023-04-04T06:43:04;9.50;92.20
37240;DHT22;23130;48.760;9.178;2023-04-04T06:45:30;9.40;92.00
37240;DHT22;23130;48.760;9.178;2023-04-04T06:47:58;9.30;92.40
37240;DHT22;23130;48.760;9.178;2023-04-04T06:50:24;10.00;92.80
37240;DHT22;23130;48.760;9.178;2023-04-04T06:52:50;10.30;90.60
37240;DHT22;23130;48.760;9.178;2023-04-04T06:55:16;9.70;90.90
37240;DHT22;23130;48.760;9.178;2023-04-04T06:57:42;9.40;91.10
37240;DHT22;23130;48.760;9.178;2023-04-04T07:00:08;9.80;91.40
37240;DHT22;23130;48.760;9.178;2023-04-04T07:02:34;9.90;91.20
37240;DHT22;23130;48.760;9.178;2023-04-04T07:05:01;10.20;91.40
37240;DHT22;23130;48.760;9.178;2023-04-04T07:07:27;10.50;89.50
37240;DHT22;23130;48.760;9.178;2023-04-04T07:09:54;10.40;87.50
37240;DHT22;23130;48.760;9.178;2023-04-04T07:12:20;10.20;86.30
37240;DHT22;23130;48.760;9.178;2023-04-04T07:14:46;10.30;85.40
37240;DHT22;23130;48.760;9.178;2023-04-04T07:17:12;10.20;83.10
37240;DHT22;23130;48.760;9.178;2023-04-04T07:19:37;9.90;84.70
37240;DHT22;23130;48.760;9.178;2023-04-04T07:22:03;9.90;84.00
37240;DHT22;23130;48.760;9.178;2023-04-04T07:24:28;9.50;84.40
37240;DHT22;23130;48.760;9.178;2023-04-04T07:26:54;9.10;86.20
37240;DHT22;23130;48.760;9.178;2023-04-04T07:29:19;9.00;87.00
37240;DHT22;23130;48.760;9.178;2023-04-04T07:31:46;9.00;86.30
37240;DHT22;23130;48.760;9.178;2023-04-04T07:34:12;8.90;86.10
37240;DHT22;23130;48.760;9.178;2023-04-04T07:36:38;8.70;87.20
37240;DHT22;23130;48.760;9.178;2023-04-04T07:39:04;8.10;86.50
37240;DHT22;23130;48.760;9.178;2023-04-04T07:41:29;6.80;89.30
37240;DHT22;23130;48.760;9.178;2023-04-04T07:43:55;5.80;91.00
37240;DHT22;23130;48.760;9.178;2023-04-04T07:46:21;5.10;92.10
37240;DHT22;23130;48.760;9.178;2023-04-04T07:48:46;4.70;93.20
37240;DHT22;23130;48.760;9.178;2023-04-04T07:51:12;4.40;94.00
37240;DHT22;23130;48.760;9.178;2023-04-04T07:53:38;4.20;94.10
37240;DHT22;23130;48.760;9.178;2023-04-04T07:56:04;3.90;95.00
37240;DHT22;23130;48.760;9.178;2023-04-04T07:58:33;3.80;95.60
37240;DHT22;23130;48.760;9.178;2023-04-04T08:01:00;3.70;95.30
37240;DHT22;23130;48.760;9.178;2023-04-04T08:03:25;3.40;95.20
37240;DHT22;23130;48.760;9.178;2023-04-04T08:05:51;3.40;96.20
37240;DHT22;23130;48.760;9.178;2023-04-04T08:08:17;3.40;96.40
37240;DHT22;23130;48.760;9.178;2023-04-04T08:10:43;3.40;97.00
37240;DHT22;23130;48.760;9.178;2023-04-04T08:13:10;3.50;96.50
37240;DHT22;23130;48.760;9.178;2023-04-04T08:15:36;3.50;96.70
37240;DHT22;23130;48.760;9.178;2023-04-04T08:18:02;3.40;96.40
37240;DHT22;23130;48.760;9.178;2023-04-04T08:20:27;3.40;97.90
37240;DHT22;23130;48.760;9.178;2023-04-04T08:22:53;3.50;97.00
37240;DHT22;23130;48.760;9.178;2023-04-04T08:25:19;3.60;97.00
37240;DHT22;23130;48.760;9.178;2023-04-04T08:27:44;3.50;96.80
37240;DHT22;23130;48.760;9.178;2023-04-04T08:30:11;3.50;97.80
37240;DHT22;23130;48.760;9.178;2023-04-04T08:32:38;3.60;98.20
37240;DHT22;23130;48.760;9.178;2023-04-04T08:35:04;3.70;97.00
37240;DHT22;23130;48.760;9.178;2023-04-04T08:37:30;3.80;97.00
37240;DHT22;23130;48.760;9.178;2023-04-04T08:39:56;3.80;97.00
37240;DHT22;23130;48.760;9.178;2023-04-04T08:42:22;3.70;97.00
37240;DHT22;23130;48.760;9.178;2023-04-04T08:44:52;3.80;97.40
37240;DHT22;23130;48.760;9.178;2023-04-04T08:47:19;4.10;97.80
37240;DHT22;23130;48.760;9.178;2023-04-04T08:49:47;4.40;97.80
37240;DHT22;23130;48.760;9.178;2023-04-04T08:52:15;4.70;96.60
37240;DHT22;23130;48.760;9.178;2023-04-04T08:54:43;4.90;96.00
37240;DHT22;23130;48.760;9.178;2023-04-04T08:57:09;4.70;96.20
37240;DHT22;23130;48.760;9.178;2023-04-04T08:59:35;4.60;95.60
37240;DHT22;23130;48.760;9.178;2023-04-04T09:02:33;4.70;95.80
37240;DHT22;23130;48.760;9.178;2023-04-04T09:05:01;4.70;96.10
37240;DHT22;23130;48.760;9.178;2023-04-04T09:07:27;4.90;96.60
37240;DHT22;23130;48.760;9.178;2023-04-04T09:09:53;4.80;95.30
37240;DHT22;23130;48.760;9.178;2023-04-04T09:12:21;4.90;95.70
37240;DHT22;23130;48.760;9.178;2023-04-04T09:14:47;4.90;94.80
37240;DHT22;23130;48.760;9.178;2023-04-04T09:17:15;5.10;95.10
37240;DHT22;23130;48.760;9.178;2023-04-04T09:19:41;5.40;95.30
37240;DHT22;23130;48.760;9.178;2023-04-04T09:22:07;5.70;95.30
37240;DHT22;23130;48.760;9.178;2023-04-04T09:24:41;5.80;94.60
37240;DHT22;23130;48.760;9.178;2023-04-04T09:27:07;5.80;94.60
37240;DHT22;23130;48.760;9.178;2023-04-04T09:29:36;5.60;93.50
37240;DHT22;23130;48.760;9.178;2023-04-04T09:32:02;5.10;94.20
37240;DHT22;23130;48.760;9.178;2023-04-04T09:34:28;4.90;94.40
37240;DHT22;23130;48.760;9.178;2023-04-04T09:36:55;5.00;94.30
37240;DHT22;23130;48.760;9.178;2023-04-04T09:39:22;5.20;94.20
37240;DHT22;23130;48.760;9.178;2023-04-04T09:41:48;5.20;93.80
37240;DHT22;23130;48.760;9.178;2023-04-04T09:44:15;5.30;94.40
37240;DHT22;23130;48.760;9.178;2023-04-04T09:46:41;5.50;94.70
37240;DHT22;23130;48.760;9.178;2023-04-04T09:49:10;5.40;93.40
37240;DHT22;23130;48.760;9.178;2023-04-04T09:51:37;5.20;93.00
37240;DHT22;23130;48.760;9.178;2023-04-04T09:54:03;5.10;93.90
37240;DHT22;23130;48.760;9.178;2023-04-04T09:56:32;5.00;94.00
37240;DHT22;23130;48.760;9.178;2023-04-04T09:58:59;4.80;94.50
37240;DHT22;23130;48.760;9.178;2023-04-04T10:01:27;4.90;94.60
37240;DHT22;23130;48.760;9.178;2023-04-04T10:03:53;5.00;95.60
37240;DHT22;23130;48.760;9.178;2023-04-04T10:06:22;5.00;94.50
37240;DHT22;23130;48.760;9.178;2023-04-04T10:08:47;5.00;93.70
37240;DHT22;23130;48.760;9.178;2023-04-04T10:11:29;4.90;94.10
37240;DHT22;23130;48.760;9.178;2023-04-04T10:13:57;4.80;94.00
37240;DHT22;23130;48.760;9.178;2023-04-04T10:16:23;4.80;95.00
37240;DHT22;23130;48.760;9.178;2023-04-04T10:18:49;4.90;95.50
37240;DHT22;23130;48.760;9.178;2023-04-04T10:21:16;5.10;94.30
37240;DHT22;23130;48.760;9.178;2023-04-04T10:23:44;5.30;94.60
37240;DHT22;23130;48.760;9.178;2023-04-04T10:26:10;5.40;94.50
37240;DHT22;23130;48.760;9.178;2023-04-04T10:28:37;5.60;93.80
37240;DHT22;23130;48.760;9.178;2023-04-04T10:31:15;5.40;94.60
37240;DHT22;23130;48.760;9.178;2023-04-04T10:36:53;5.20;93.60
37240;DHT22;23130;48.760;9.178;2023-04-04T10:39:43;5.20;93.80
37240;DHT22;23130;48.760;9.178;2023-04-04T10:42:09;5.40;93.60
37240;DHT22;23130;48.760;9.178;2023-04-04T10:44:39;5.30;93.90
37240;DHT22;23130;48.760;9.178;2023-04-04T10:47:19;5.40;94.20
37240;DHT22;23130;48.760;9.178;2023-04-04T10:49:49;5.60;93.70
37240;DHT22;23130;48.760;9.178;2023-04-04T10:52:19;5.60;94.00
37240;DHT22;23130;48.760;9.178;2023-04-04T10:54:46;5.70;92.70
37240;DHT22;23130;48.760;9.178;2023-04-04T10:57:14;5.60;92.90
37240;DHT22;23130;48.760;9.178;2023-04-04T11:02:46;5.60;92.80
37240;DHT22;23130;48.760;9.178;2023-04-04T11:07:44;5.80;93.50
37240;DHT22;23130;48.760;9.178;2023-04-04T11:10:15;5.90;93.10
37240;DHT22;23130;48.760;9.178;2023-04-04T11:12:45;5.90;92.80
37240;DHT22;23130;48.760;9.178;2023-04-04T11:15:12;6.00;93.20
37240;DHT22;23130;48.760;9.178;2023-04-04T11:20:22;6.10;92.40
37240;DHT22;23130;48.760;9.178;2023-04-04T11:23:14;6.10;92.00
37240;DHT22;23130;48.760;9.178;2023-04-04T11:25:48;6.10;92.20
37240;DHT22;23130;48.760;9.178;2023-04-04T11:34:10;6.10;92.60
37240;DHT22;23130;48.760;9.178;2023-04-04T11:44:25;6.40;92.70
37240;DHT22;23130;48.760;9.178;2023-04-04T11:49:29;6.20;92.30
37240;DHT22;23130;48.760;9.178;2023-04-04T11:51:56;6.30;93.00
37240;DHT22;23130;48.760;9.178;2023-04-04T11:54:22;6.40;92.20
37240;DHT22;23130;48.760;9.178;2023-04-04T11:56:48;6.50;91.70
37240;DHT22;23130;48.760;9.178;2023-04-04T11:59:18;6.50;92.00
37240;DHT22;23130;48.760;9.178;2023-04-04T12:01:44;6.50;91.50
37240;DHT22;23130;48.760;9.178;2023-04-04T12:04:10;6.60;91.50
37240;DHT22;23130;48.760;9.178;2023-04-04T12:06:37;6.60;91.70
37240;DHT22;23130;48.760;9.178;2023-04-04T12:09:04;6.60;92.30
37240;DHT22;23130;48.760;9.178;2023-04-04T12:11:33;6.70;91.00
37240;DHT22;23130;48.760;9.178;2023-04-04T12:13:59;6.60;91.90
37240;DHT22;23130;48.760;9.178;2023-04-04T12:16:26;6.80;92.70
37240;DHT22;23130;48.760;9.178;2023-04-04T12:18:52;7.00;91.80
37240;DHT22;23130;48.760;9.178;2023-04-04T12:21:18;7.10;91.60
37240;DHT22;23130;48.760;9.178;2023-04-04T12:23:46;7.10;91.10
37240;DHT22;23130;48.760;9.178;2023-04-04T12:26:14;7.20;91.00
37240;DHT22;23130;48.760;9.178;2023-04-04T12:28:41;7.10;90.20
37240;DHT22;23130;48.760;9.178;2023-04-04T12:31:10;7.10;91.00
37240;DHT22;23130;48.760;9.178;2023-04-04T12:33:36;7.10;90.70
37240;DHT22;23130;48.760;9.178;2023-04-04T12:36:02;7.00;90.80
37240;DHT22;23130;48.760;9.178;2023-04-04T12:38:29;7.00;91.50
37240;DHT22;23130;48.760;9.178;2023-04-04T12:40:56;6.90;90.60
37240;DHT22;23130;48.760;9.178;2023-04-04T12:43:30;6.90;91.80
37240;DHT22;23130;48.760;9.178;2023-04-04T12:45:58;7.00;91.10
37240;DHT22;23130;48.760;9.178;2023-04-04T12:48:27;7.10;91.20
37240;DHT22;23130;48.760;9.178;2023-04-04T12:50:56;7.20;90.90
37240;DHT22;23130;48.760;9.178;2023-04-04T12:53:26;7.20;90.40
37240;DHT22;23130;48.760;9.178;2023-04-04T12:55:53;7.30;90.80
37240;DHT22;23130;48.760;9.178;2023-04-04T12:58:20;7.30;90.90
37240;DHT22;23130;48.760;9.178;2023-04-04T13:00:48;7.20;90.50
37240;DHT22;23130;48.760;9.178;2023-04-04T13:03:15;7.20;91.20
37240;DHT22;23130;48.760;9.178;2023-04-04T13:05:45;7.20;91.30
37240;DHT22;23130;48.760;9.178;2023-04-04T13:08:11;7.20;91.40
37240;DHT22;23130;48.760;9.178;2023-04-04T13:13:38;7.30;91.50
37240;DHT22;23130;48.760;9.178;2023-04-04T13:16:08;7.50;91.40
37240;DHT22;23130;48.760;9.178;2023-04-04T13:18:37;7.70;91.70
37240;DHT22;23130;48.760;9.178;2023-04-04T13:21:04;7.60;91.00
37240;DHT22;23130;48.760;9.178;2023-04-04T13:23:32;7.40;91.20
37240;DHT22;23130;48.760;9.178;2023-04-04T13:25:58;7.40;91.90
37240;DHT22;23130;48.760;9.178;2023-04-04T13:28:24;7.20;91.20
37240;DHT22;23130;48.760;9.178;2023-04-04T13:30:50;7.10;91.60
37240;DHT22;23130;48.760;9.178;2023-04-04T13:33:17;7.10;91.30
37240;DHT22;23130;48.760;9.178;2023-04-04T13:35:45;7.10;91.20
37240;DHT22;23130;48.760;9.178;2023-04-04T13:38:11;7.20;91.60
37240;DHT22;23130;48.760;9.178;2023-04-04T13:40:37;7.30;91.50
37240;DHT22;23130;48.760;9.178;2023-04-04T13:43:03;7.40;91.40
37240;DHT22;23130;48.760;9.178;2023-04-04T13:45:34;7.40;91.20
37240;DHT22;23130;48.760;9.178;2023-04-04T13:48:00;7.40;91.20
37240;DHT22;23130;48.760;9.178;2023-04-04T13:50:26;7.30;90.90
37240;DHT22;23130;48.760;9.178;2023-04-04T13:52:52;7.30;90.80
37240;DHT22;23130;48.760;9.178;2023-04-04T13:55:19;7.30;91.00
37240;DHT22;23130;48.760;9.178;2023-04-04T13:57:45;7.30;90.90
37240;DHT22;23130;48.760;9.178;2023-04-04T14:00:11;7.40;90.80
37240;DHT22;23130;48.760;9.178;2023-04-04T14:02:37;7.50;90.10
37240;DHT22;23130;48.760;9.178;2023-04-04T14:05:04;7.60;90.30
37240;DHT22;23130;48.760;9.178;2023-04-04T14:07:29;7.60;91.10
37240;DHT22;23130;48.760;9.178;2023-04-04T14:09:55;7.50;90.80
37240;DHT22;23130;48.760;9.178;2023-04-04T14:12:21;7.50;90.80
37240;DHT22;23130;48.760;9.178;2023-04-04T14:14:46;7.50;90.90
37240;DHT22;23130;48.760;9.178;2023-04-04T14:17:12;7.50;91.00
37240;DHT22;23130;48.760;9.178;2023-04-04T14:19:38;7.40;90.70
37240;DHT22;23130;48.760;9.178;2023-04-04T14:22:04;7.30;91.20
37240;DHT22;23130;48.760;9.178;2023-04-04T14:24:30;7.40;91.50
37240;DHT22;23130;48.760;9.178;2023-04-04T14:26:55;7.40;91.30
37240;DHT22;23130;48.760;9.178;2023-04-04T14:29:21;7.40;90.50
37240;DHT22;23130;48.760;9.178;2023-04-04T14:31:47;7.50;90.50
37240;DHT22;23130;48.760;9.178;2023-04-04T14:34:13;7.50;90.50
37240;DHT22;23130;48.760;9.178;2023-04-04T14:36:38;7.50;90.60
37240;DHT22;23130;48.760;9.178;2023-04-04T14:39:04;7.50;90.80
37240;DHT22;23130;48.760;9.178;2023-04-04T14:41:29;7.40;90.80
37240;DHT22;23130;48.760;9.178;2023-04-04T14:43:55;7.30;90.80
37240;DHT22;23130;48.760;9.178;2023-04-04T14:46:20;7.30;90.40
37240;DHT22;23130;48.760;9.178;2023-04-04T14:48:46;7.30;90.20
37240;DHT22;23130;48.760;9.178;2023-04-04T14:51:12;7.40;90.60
37240;DHT22;23130;48.760;9.178;2023-04-04T14:53:38;7.50;90.60
37240;DHT22;23130;48.760;9.178;2023-04-04T14:56:03;7.60;90.50
37240;DHT22;23130;48.760;9.178;2023-04-04T14:58:29;7.80;90.40
37240;DHT22;23130;48.760;9.178;2023-04-04T15:00:54;7.80;90.60
37240;DHT22;23130;48.760;9.178;2023-04-04T15:03:20;7.80;90.20
37240;DHT22;23130;48.760;9.178;2023-04-04T15:05:47;7.80;90.40
37240;DHT22;23130;48.760;9.178;2023-04-04T15:08:13;7.90;89.90
37240;DHT22;23130;48.760;9.178;2023-04-04T15:10:38;7.80;89.80
37240;DHT22;23130;48.760;9.178;2023-04-04T15:13:04;7.80;90.90
37240;DHT22;23130;48.760;9.178;2023-04-04T15:15:29;7.60;90.20
37240;DHT22;23130;48.760;9.178;2023-04-04T15:17:55;7.60;90.00
37240;DHT22;23130;48.760;9.178;2023-04-04T15:20:21;7.60;90.10
37240;DHT22;23130;48.760;9.178;2023-04-04T15:22:46;7.70;90.40
37240;DHT22;23130;48.760;9.178;2023-04-04T15:25:12;7.80;90.00
37240;DHT22;23130;48.760;9.178;2023-04-04T15:27:37;7.90;89.80
37240;DHT22;23130;48.760;9.178;2023-04-04T15:30:04;7.90;90.00
37240;DHT22;23130;48.760;9.178;2023-04-04T15:32:29;7.90;90.40
37240;DHT22;23130;48.760;9.178;2023-04-04T15:34:55;7.90;90.40
37240;DHT22;23130;48.760;9.178;2023-04-04T15:37:22;7.80;90.80
37240;DHT22;23130;48.760;9.178;2023-04-04T15:39:48;7.70;90.70
37240;DHT22;23130;48.760;9.178;2023-04-04T15:42:13;7.60;90.50
37240;DHT22;23130;48.760;9.178;2023-04-04T15:44:40;7.50;90.00
37240;DHT22;23130;48.760;9.178;2023-04-04T15:47:06;7.40;90.40
37240;DHT22;23130;48.760;9.178;2023-04-04T15:49:31;7.50;90.60
37240;DHT22;23130;48.760;9.178;2023-04-04T15:51:58;7.50;90.50
37240;DHT22;23130;48.760;9.178;2023-04-04T15:54:23;7.50;91.10
37240;DHT22;23130;48.760;9.178;2023-04-04T15:56:49;7.50;91.20
37240;DHT22;23130;48.760;9.178;2023-04-04T15:59:15;7.60;91.70
37240;DHT22;23130;48.760;9.178;2023-04-04T16:01:41;7.60;91.30
37240;DHT22;23130;48.760;9.178;2023-04-04T16:04:06;7.50;91.70
37240;DHT22;23130;48.760;9.178;2023-04-04T16:06:33;7.30;91.20
37240;DHT22;23130;48.760;9.178;2023-04-04T16:08:59;7.30;91.70